createdAt,value
2017-05-31T00:01:04.220Z,46
2017-05-31T00:02:12.304Z,45
2017-05-31T00:03:20.390Z,45
2017-05-31T00:04:28.480Z,46
2017-05-31T00:05:36.568Z,46
2017-05-31T00:06:44.655Z,46
2017-05-31T00:07:52.753Z,45
2017-05-31T00:09:00.832Z,46
2017-05-31T00:10:08.919Z,46
2017-05-31T00:11:17.056Z,46
2017-05-31T00:12:25.095Z,46
2017-05-31T00:13:33.398Z,46
2017-05-31T00:14:41.267Z,46
2017-05-31T00:15:49.357Z,46
2017-05-31T00:16:57.452Z,46
2017-05-31T00:18:05.533Z,46
2017-05-31T00:19:13.620Z,46
2017-05-31T00:20:21.709Z,45
2017-05-31T00:21:29.796Z,46
2017-05-31T00:22:37.892Z,46
2017-05-31T00:23:45.976Z,46
2017-05-31T00:24:54.058Z,46
2017-05-31T00:26:02.146Z,46
2017-05-31T00:27:10.234Z,46
2017-05-31T00:28:18.329Z,46
2017-05-31T00:29:26.412Z,46
2017-05-31T00:30:34.502Z,46
2017-05-31T00:31:42.586Z,46
2017-05-31T00:32:50.675Z,46
2017-05-31T00:33:58.762Z,46
2017-05-31T00:35:06.852Z,46
2017-05-31T00:36:14.938Z,46
2017-05-31T00:37:23.028Z,46
2017-05-31T00:38:31.125Z,46
2017-05-31T00:39:39.205Z,46
2017-05-31T00:40:47.291Z,46
2017-05-31T00:41:55.378Z,46
2017-05-31T00:43:03.464Z,46
2017-05-31T00:44:11.554Z,46
2017-05-31T00:45:19.642Z,45
2017-05-31T00:46:27.729Z,46
2017-05-31T00:47:35.890Z,45
2017-05-31T00:48:43.904Z,45
2017-05-31T00:49:51.993Z,45
2017-05-31T00:51:00.081Z,45
2017-05-31T00:52:08.167Z,45
2017-05-31T00:53:16.255Z,45
2017-05-31T00:54:24.348Z,45
2017-05-31T00:55:32.436Z,45
2017-05-31T00:56:40.519Z,45
2017-05-31T00:57:48.607Z,45
2017-05-31T00:58:56.694Z,46
2017-05-31T01:00:04.783Z,45
2017-05-31T01:01:12.871Z,45
2017-05-31T01:02:20.960Z,46
2017-05-31T01:03:29.047Z,46
2017-05-31T01:04:37.134Z,46
2017-05-31T01:05:45.222Z,46
2017-05-31T01:06:53.310Z,46
2017-05-31T01:08:01.401Z,46
2017-05-31T01:09:09.487Z,46
2017-05-31T01:10:17.575Z,45
2017-05-31T01:11:25.668Z,45
2017-05-31T01:12:33.751Z,46
2017-05-31T01:13:41.837Z,45
2017-05-31T01:14:49.925Z,45
2017-05-31T01:15:58.014Z,45
2017-05-31T01:17:06.101Z,45
2017-05-31T01:18:14.188Z,45
2017-05-31T01:19:22.277Z,45
2017-05-31T01:20:30.365Z,46
2017-05-31T01:21:38.451Z,46
2017-05-31T01:22:46.544Z,46
2017-05-31T01:23:54.627Z,46
2017-05-31T01:25:02.714Z,46
2017-05-31T01:26:10.802Z,46
2017-05-31T01:27:18.892Z,46
2017-05-31T01:28:26.980Z,46
2017-05-31T01:29:35.068Z,46
2017-05-31T01:30:43.156Z,46
2017-05-31T01:31:51.240Z,46
2017-05-31T01:32:59.326Z,46
2017-05-31T01:34:07.414Z,46
2017-05-31T01:35:15.503Z,46
2017-05-31T01:36:23.592Z,46
2017-05-31T01:37:31.678Z,46
2017-05-31T01:38:39.769Z,46
2017-05-31T01:39:47.853Z,46
2017-05-31T01:40:55.940Z,46
2017-05-31T01:42:04.030Z,46
2017-05-31T01:43:12.123Z,46
2017-05-31T01:44:20.218Z,46
2017-05-31T01:45:28.314Z,46
2017-05-31T01:46:36.385Z,46
2017-05-31T01:47:44.474Z,46
2017-05-31T01:48:52.566Z,45
2017-05-31T01:50:00.736Z,46
2017-05-31T01:51:08.737Z,45
2017-05-31T01:52:16.828Z,45
2017-05-31T01:53:24.913Z,45
2017-05-31T01:54:32.999Z,45
2017-05-31T01:55:41.089Z,45
2017-05-31T01:56:49.175Z,45
2017-05-31T01:57:57.262Z,45
2017-05-31T01:59:05.353Z,45
2017-05-31T02:00:13.436Z,45
2017-05-31T02:01:21.527Z,45
2017-05-31T02:02:29.612Z,45
2017-05-31T02:03:37.701Z,45
2017-05-31T02:04:45.788Z,45
2017-05-31T02:05:53.876Z,45
2017-05-31T02:07:01.964Z,45
2017-05-31T02:08:10.053Z,45
2017-05-31T02:09:18.143Z,45
2017-05-31T02:10:26.225Z,45
2017-05-31T02:11:34.312Z,45
2017-05-31T02:12:42.400Z,45
2017-05-31T02:13:50.487Z,45
2017-05-31T02:14:58.575Z,45
2017-05-31T02:16:06.670Z,45
2017-05-31T02:17:14.750Z,45
2017-05-31T02:18:22.839Z,46
2017-05-31T02:19:30.926Z,45
2017-05-31T02:20:39.035Z,45
2017-05-31T02:21:47.100Z,45
2017-05-31T02:22:55.187Z,45
2017-05-31T02:24:03.275Z,46
2017-05-31T02:25:11.364Z,45
2017-05-31T02:26:19.451Z,45
2017-05-31T02:27:27.537Z,45
2017-05-31T02:28:35.627Z,45
2017-05-31T02:29:43.753Z,45
2017-05-31T02:30:51.813Z,45
2017-05-31T02:31:59.896Z,45
2017-05-31T02:33:07.992Z,45
2017-05-31T02:34:16.070Z,45
2017-05-31T02:35:24.159Z,45
2017-05-31T02:36:32.247Z,45
2017-05-31T02:37:40.334Z,45
2017-05-31T02:38:48.421Z,45
2017-05-31T02:39:56.508Z,45
2017-05-31T02:41:04.598Z,45
2017-05-31T02:42:12.684Z,45
2017-05-31T02:43:20.769Z,45
2017-05-31T02:44:28.857Z,45
2017-05-31T02:45:36.945Z,45
2017-05-31T02:46:45.091Z,45
2017-05-31T02:47:53.123Z,45
2017-05-31T02:49:01.206Z,45
2017-05-31T02:50:09.297Z,45
2017-05-31T02:51:17.432Z,45
2017-05-31T02:52:25.469Z,45
2017-05-31T02:53:33.564Z,45
2017-05-31T02:54:41.644Z,45
2017-05-31T02:55:49.731Z,45
2017-05-31T02:56:57.819Z,45
2017-05-31T02:58:05.906Z,45
2017-05-31T02:59:13.992Z,45
2017-05-31T03:00:22.080Z,45
2017-05-31T03:01:30.164Z,45
2017-05-31T03:02:38.253Z,45
2017-05-31T03:03:46.394Z,45
2017-05-31T03:04:54.427Z,45
2017-05-31T03:06:02.550Z,45
2017-05-31T03:07:10.602Z,45
2017-05-31T03:08:18.690Z,45
2017-05-31T03:09:26.777Z,45
2017-05-31T03:10:34.865Z,46
2017-05-31T03:11:42.953Z,45
2017-05-31T03:12:51.040Z,45
2017-05-31T03:13:59.126Z,45
2017-05-31T03:15:07.216Z,45
2017-05-31T03:16:15.328Z,45
2017-05-31T03:17:23.391Z,45
2017-05-31T03:18:31.477Z,45
2017-05-31T03:19:39.569Z,45
2017-05-31T03:20:47.660Z,45
2017-05-31T03:21:55.739Z,45
2017-05-31T03:23:03.827Z,45
2017-05-31T03:24:11.913Z,45
2017-05-31T03:25:20.002Z,45
2017-05-31T03:26:28.087Z,45
2017-05-31T03:27:36.174Z,45
2017-05-31T03:28:44.266Z,45
2017-05-31T03:29:52.348Z,45
2017-05-31T03:31:00.436Z,45
2017-05-31T03:32:08.524Z,46
2017-05-31T03:33:16.613Z,45
2017-05-31T03:34:24.700Z,45
2017-05-31T03:35:32.784Z,45
2017-05-31T03:36:40.874Z,45
2017-05-31T03:37:48.968Z,45
2017-05-31T03:38:57.049Z,46
2017-05-31T03:40:05.132Z,46
2017-05-31T03:41:13.220Z,45
2017-05-31T03:42:21.313Z,45
2017-05-31T03:43:29.404Z,45
2017-05-31T03:44:37.491Z,46
2017-05-31T03:45:45.585Z,46
2017-05-31T03:46:53.668Z,46
2017-05-31T03:48:01.755Z,46
2017-05-31T03:49:09.843Z,46
2017-05-31T03:50:17.930Z,46
2017-05-31T03:51:26.017Z,45
2017-05-31T03:52:34.105Z,46
2017-05-31T03:53:42.192Z,46
2017-05-31T03:54:50.372Z,45
2017-05-31T03:55:58.365Z,46
2017-05-31T03:57:06.452Z,46
2017-05-31T03:58:14.539Z,46
2017-05-31T03:59:22.627Z,46
2017-05-31T04:00:30.715Z,46
2017-05-31T04:01:38.803Z,46
2017-05-31T04:02:46.891Z,46
2017-05-31T04:03:54.977Z,46
2017-05-31T04:05:03.066Z,46
2017-05-31T04:06:11.152Z,46
2017-05-31T04:07:19.312Z,46
2017-05-31T04:08:27.335Z,46
2017-05-31T04:09:35.415Z,46
2017-05-31T04:10:43.602Z,46
2017-05-31T04:11:51.672Z,46
2017-05-31T04:12:59.769Z,47
2017-05-31T04:14:07.764Z,46
2017-05-31T04:15:15.851Z,46
2017-05-31T04:16:23.937Z,47
2017-05-31T04:17:32.026Z,46
2017-05-31T04:18:40.114Z,46
2017-05-31T04:19:48.201Z,47
2017-05-31T04:20:56.288Z,47
2017-05-31T04:22:04.377Z,47
2017-05-31T04:23:12.464Z,46
2017-05-31T04:24:20.550Z,46
2017-05-31T04:25:28.643Z,46
2017-05-31T04:26:36.722Z,46
2017-05-31T04:27:44.815Z,47
2017-05-31T04:28:52.897Z,47
2017-05-31T04:30:00.985Z,46
2017-05-31T04:31:09.111Z,46
2017-05-31T04:32:17.162Z,46
2017-05-31T04:33:25.249Z,46
2017-05-31T04:34:33.349Z,46
2017-05-31T04:35:41.436Z,46
2017-05-31T04:36:49.700Z,46
2017-05-31T04:37:57.931Z,46
2017-05-31T04:39:05.698Z,46
2017-05-31T04:40:13.786Z,46
2017-05-31T04:41:21.873Z,46
2017-05-31T04:42:30.398Z,47
2017-05-31T04:43:38.194Z,47
2017-05-31T04:44:46.565Z,46
2017-05-31T04:45:54.668Z,46
2017-05-31T04:47:02.309Z,47
2017-05-31T04:48:10.398Z,46
2017-05-31T04:49:18.487Z,46
2017-05-31T04:50:26.573Z,46
2017-05-31T04:51:34.660Z,46
2017-05-31T04:52:42.745Z,47
2017-05-31T04:53:50.834Z,46
2017-05-31T04:54:58.918Z,47
2017-05-31T04:56:07.008Z,47
2017-05-31T04:57:15.096Z,47
2017-05-31T04:58:23.188Z,47
2017-05-31T04:59:31.294Z,47
2017-05-31T05:00:39.356Z,46
2017-05-31T05:01:47.442Z,47
2017-05-31T05:02:55.533Z,46
2017-05-31T05:04:03.615Z,46
2017-05-31T05:05:11.705Z,46
2017-05-31T05:06:19.797Z,46
2017-05-31T05:07:27.884Z,46
2017-05-31T05:08:35.972Z,46
2017-05-31T05:09:44.058Z,46
2017-05-31T05:10:52.145Z,46
2017-05-31T05:12:00.233Z,46
2017-05-31T05:13:08.321Z,47
2017-05-31T05:14:16.406Z,47
2017-05-31T05:15:24.496Z,46
2017-05-31T05:16:32.607Z,46
2017-05-31T05:17:40.670Z,47
2017-05-31T05:18:48.762Z,46
2017-05-31T05:19:56.912Z,47
2017-05-31T05:21:05.032Z,48
2017-05-31T05:22:13.023Z,48
2017-05-31T05:23:21.114Z,48
2017-05-31T05:24:29.199Z,48
2017-05-31T05:25:37.287Z,47
2017-05-31T05:26:45.376Z,47
2017-05-31T05:27:53.484Z,47
2017-05-31T05:29:01.548Z,47
2017-05-31T05:30:09.634Z,46
2017-05-31T05:31:17.972Z,46
2017-05-31T05:32:25.809Z,46
2017-05-31T05:33:33.899Z,46
2017-05-31T05:34:41.985Z,47
2017-05-31T05:35:50.071Z,46
2017-05-31T05:36:58.170Z,46
2017-05-31T05:38:06.250Z,46
2017-05-31T05:39:14.338Z,46
2017-05-31T05:40:22.427Z,46
2017-05-31T05:41:30.514Z,46
2017-05-31T05:42:38.601Z,46
2017-05-31T05:43:46.689Z,46
2017-05-31T05:44:54.776Z,46
2017-05-31T05:46:02.865Z,47
2017-05-31T05:47:10.960Z,47
2017-05-31T05:48:19.047Z,47
2017-05-31T05:49:27.133Z,46
2017-05-31T05:50:35.222Z,46
2017-05-31T05:51:43.308Z,46
2017-05-31T05:52:51.396Z,46
2017-05-31T05:53:59.485Z,46
2017-05-31T05:55:07.573Z,46
2017-05-31T05:56:15.656Z,46
2017-05-31T05:57:23.747Z,46
2017-05-31T05:58:31.834Z,46
2017-05-31T05:59:39.923Z,46
2017-05-31T06:00:48.009Z,46
2017-05-31T06:01:56.098Z,46
2017-05-31T06:03:04.184Z,46
2017-05-31T06:04:12.272Z,46
2017-05-31T06:05:20.358Z,46
2017-05-31T06:06:28.444Z,46
2017-05-31T06:07:36.531Z,46
2017-05-31T06:08:44.621Z,46
2017-05-31T06:09:52.708Z,46
2017-05-31T06:11:00.797Z,46
2017-05-31T06:12:08.886Z,46
2017-05-31T06:13:16.971Z,46
2017-05-31T06:14:25.056Z,46
2017-05-31T06:15:33.173Z,46
2017-05-31T06:16:41.231Z,46
2017-05-31T06:17:49.320Z,46
2017-05-31T06:18:57.405Z,46
2017-05-31T06:20:05.542Z,46
2017-05-31T06:21:13.587Z,46
2017-05-31T06:22:21.670Z,46
2017-05-31T06:23:29.759Z,46
2017-05-31T06:24:37.844Z,45
2017-05-31T06:25:45.932Z,45
2017-05-31T06:26:54.019Z,45
2017-05-31T06:28:02.111Z,46
2017-05-31T06:29:10.195Z,46
2017-05-31T06:30:18.282Z,46
2017-05-31T06:31:26.369Z,46
2017-05-31T06:32:34.522Z,45
2017-05-31T06:33:42.549Z,46
2017-05-31T06:34:50.631Z,46
2017-05-31T06:35:58.717Z,46
2017-05-31T06:37:06.804Z,46
2017-05-31T06:38:14.942Z,46
2017-05-31T06:39:22.980Z,45
2017-05-31T06:40:31.067Z,45
2017-05-31T06:41:39.158Z,46
2017-05-31T06:42:47.244Z,46
2017-05-31T06:43:55.330Z,46
2017-05-31T06:45:03.417Z,46
2017-05-31T06:46:11.503Z,45
2017-05-31T06:47:19.592Z,46
2017-05-31T06:48:27.678Z,46
2017-05-31T06:49:35.791Z,46
2017-05-31T06:50:43.855Z,46
2017-05-31T06:51:51.943Z,46
2017-05-31T06:53:00.031Z,46
2017-05-31T06:54:08.117Z,45
2017-05-31T06:55:16.203Z,45
2017-05-31T06:56:24.291Z,46
2017-05-31T06:57:32.376Z,46
2017-05-31T06:58:40.465Z,46
2017-05-31T06:59:48.554Z,45
2017-05-31T07:00:56.640Z,46
2017-05-31T07:02:04.729Z,46
2017-05-31T07:03:12.816Z,46
2017-05-31T07:04:20.902Z,46
2017-05-31T07:05:28.988Z,46
2017-05-31T07:06:37.091Z,46
2017-05-31T07:06:37.103Z,46
2017-05-31T07:07:45.164Z,46
2017-05-31T07:08:53.252Z,46
2017-05-31T07:10:01.354Z,46
2017-05-31T07:11:09.476Z,46
2017-05-31T07:12:17.520Z,46
2017-05-31T07:13:25.603Z,46
2017-05-31T07:14:33.688Z,46
2017-05-31T07:15:41.777Z,46
2017-05-31T07:16:49.862Z,46
2017-05-31T07:17:57.951Z,46
2017-05-31T07:19:06.039Z,46
2017-05-31T07:20:14.126Z,46
2017-05-31T07:21:22.214Z,46
2017-05-31T07:22:30.302Z,46
2017-05-31T07:23:38.390Z,46
2017-05-31T07:24:46.475Z,46
2017-05-31T07:25:54.561Z,46
2017-05-31T07:27:02.651Z,46
2017-05-31T07:28:10.786Z,46
2017-05-31T07:29:18.826Z,46
2017-05-31T07:30:26.914Z,46
2017-05-31T07:31:35.007Z,46
2017-05-31T07:32:43.089Z,46
2017-05-31T07:33:51.202Z,46
2017-05-31T07:34:59.261Z,46
2017-05-31T07:36:07.349Z,46
2017-05-31T07:37:15.443Z,46
2017-05-31T07:38:23.525Z,46
2017-05-31T07:39:31.639Z,46
2017-05-31T07:40:39.700Z,46
2017-05-31T07:41:47.788Z,46
2017-05-31T07:42:55.901Z,46
2017-05-31T07:44:03.962Z,46
2017-05-31T07:45:12.102Z,46
2017-05-31T07:46:20.137Z,46
2017-05-31T07:47:28.224Z,46
2017-05-31T07:48:36.311Z,46
2017-05-31T07:49:44.399Z,46
2017-05-31T07:50:52.488Z,46
2017-05-31T07:52:00.576Z,46
2017-05-31T07:53:08.663Z,46
2017-05-31T07:54:16.761Z,46
2017-05-31T07:55:24.844Z,46
2017-05-31T07:56:32.944Z,46
2017-05-31T07:57:41.012Z,46
2017-05-31T07:58:49.109Z,46
2017-05-31T07:59:57.189Z,46
2017-05-31T08:01:05.277Z,45
2017-05-31T08:02:13.411Z,45
2017-05-31T08:03:21.452Z,45
2017-05-31T08:04:29.538Z,46
2017-05-31T08:05:37.652Z,45
2017-05-31T08:06:45.716Z,45
2017-05-31T08:07:53.802Z,45
2017-05-31T08:09:01.886Z,45
2017-05-31T08:10:09.988Z,45
2017-05-31T08:11:18.070Z,45
2017-05-31T08:12:26.159Z,45
2017-05-31T08:13:34.247Z,45
2017-05-31T08:14:42.334Z,45
2017-05-31T08:15:50.421Z,45
2017-05-31T08:16:58.508Z,45
2017-05-31T08:18:06.597Z,45
2017-05-31T08:19:14.685Z,45
2017-05-31T08:20:22.775Z,45
2017-05-31T08:21:30.862Z,45
2017-05-31T08:22:38.957Z,45
2017-05-31T08:23:47.038Z,45
2017-05-31T08:24:55.126Z,45
2017-05-31T08:26:03.217Z,45
2017-05-31T08:27:11.301Z,45
2017-05-31T08:28:19.392Z,45
2017-05-31T08:29:27.479Z,45
2017-05-31T08:30:35.572Z,45
2017-05-31T08:31:43.657Z,45
2017-05-31T08:32:51.745Z,45
2017-05-31T08:33:59.833Z,45
2017-05-31T08:35:07.921Z,45
2017-05-31T08:36:16.010Z,45
2017-05-31T08:37:24.098Z,45
2017-05-31T08:38:32.187Z,44
2017-05-31T08:39:40.274Z,44
2017-05-31T08:40:48.362Z,45
2017-05-31T08:41:56.452Z,45
2017-05-31T08:43:04.539Z,45
2017-05-31T08:44:12.627Z,45
2017-05-31T08:45:20.716Z,44
2017-05-31T08:46:28.813Z,45
2017-05-31T08:47:36.895Z,45
2017-05-31T08:48:44.984Z,45
2017-05-31T08:49:53.072Z,45
2017-05-31T08:51:01.164Z,45
2017-05-31T08:52:09.249Z,45
2017-05-31T08:53:17.336Z,45
2017-05-31T08:54:25.425Z,44
2017-05-31T08:55:33.512Z,45
2017-05-31T08:56:41.603Z,44
2017-05-31T08:57:49.691Z,44
2017-05-31T08:58:57.779Z,44
2017-05-31T09:00:05.868Z,44
2017-05-31T09:01:13.956Z,45
2017-05-31T09:02:22.044Z,45
2017-05-31T09:03:30.132Z,45
2017-05-31T09:04:38.221Z,45
2017-05-31T09:05:46.308Z,45
2017-05-31T09:06:54.398Z,45
2017-05-31T09:08:02.487Z,44
2017-05-31T09:09:10.576Z,45
2017-05-31T09:10:18.672Z,45
2017-05-31T09:11:26.755Z,44
2017-05-31T09:12:34.847Z,45
2017-05-31T09:13:42.942Z,45
2017-05-31T09:14:51.019Z,45
2017-05-31T09:15:59.108Z,45
2017-05-31T09:17:07.195Z,45
2017-05-31T09:18:15.292Z,45
2017-05-31T09:19:23.375Z,45
2017-05-31T09:20:31.462Z,45
2017-05-31T09:21:39.555Z,44
2017-05-31T09:22:47.643Z,45
2017-05-31T09:23:55.730Z,45
2017-05-31T09:25:03.818Z,45
2017-05-31T09:26:11.908Z,44
2017-05-31T09:27:19.996Z,44
2017-05-31T09:28:28.088Z,44
2017-05-31T09:29:36.173Z,45
2017-05-31T09:30:44.263Z,44
2017-05-31T09:31:52.356Z,44
2017-05-31T09:33:00.441Z,45
2017-05-31T09:34:08.530Z,45
2017-05-31T09:35:16.614Z,44
2017-05-31T09:36:24.705Z,44
2017-05-31T09:37:32.793Z,44
2017-05-31T09:38:40.883Z,45
2017-05-31T09:39:48.971Z,45
2017-05-31T09:40:57.058Z,45
2017-05-31T09:42:05.147Z,45
2017-05-31T09:43:13.238Z,44
2017-05-31T09:44:21.323Z,44
2017-05-31T09:45:29.411Z,44
2017-05-31T09:46:37.507Z,45
2017-05-31T09:47:45.590Z,44
2017-05-31T09:48:53.676Z,45
2017-05-31T09:50:01.780Z,44
2017-05-31T09:51:09.857Z,45
2017-05-31T09:52:17.946Z,44
2017-05-31T09:53:26.053Z,45
2017-05-31T09:54:34.121Z,45
2017-05-31T09:55:42.209Z,45
2017-05-31T09:56:50.302Z,45
2017-05-31T09:57:58.386Z,45
2017-05-31T09:59:06.476Z,45
2017-05-31T10:00:14.813Z,45
2017-05-31T10:01:22.654Z,45
2017-05-31T10:02:30.743Z,45
2017-05-31T10:03:38.830Z,45
2017-05-31T10:04:46.919Z,45
2017-05-31T10:05:55.009Z,45
2017-05-31T10:07:03.103Z,45
2017-05-31T10:08:11.186Z,45
2017-05-31T10:09:19.274Z,45
2017-05-31T10:10:27.363Z,45
2017-05-31T10:11:35.452Z,45
2017-05-31T10:12:43.542Z,45
2017-05-31T10:13:51.631Z,45
2017-05-31T10:14:59.719Z,45
2017-05-31T10:16:07.808Z,45
2017-05-31T10:17:15.899Z,45
2017-05-31T10:18:24.032Z,45
2017-05-31T10:19:32.075Z,45
2017-05-31T10:20:40.172Z,45
2017-05-31T10:21:49.312Z,45
2017-05-31T10:22:56.342Z,45
2017-05-31T10:24:04.428Z,45
2017-05-31T10:25:12.823Z,46
2017-05-31T10:26:20.606Z,45
2017-05-31T10:27:29.161Z,45
2017-05-31T10:28:37.441Z,45
2017-05-31T10:29:44.900Z,45
2017-05-31T10:30:53.023Z,45
2017-05-31T10:32:01.058Z,45
2017-05-31T10:33:09.227Z,45
2017-05-31T10:34:17.227Z,45
2017-05-31T10:35:25.378Z,45
2017-05-31T10:36:33.405Z,45
2017-05-31T10:37:41.496Z,45
2017-05-31T10:38:49.895Z,45
2017-05-31T10:39:57.731Z,45
2017-05-31T10:41:05.975Z,45
2017-05-31T10:42:13.853Z,45
2017-05-31T10:43:21.941Z,45
2017-05-31T10:44:30.029Z,45
2017-05-31T10:45:38.178Z,45
2017-05-31T10:46:46.206Z,45
2017-05-31T10:47:54.296Z,45
2017-05-31T10:49:02.391Z,45
2017-05-31T10:50:10.482Z,45
2017-05-31T10:51:18.576Z,45
2017-05-31T10:52:26.697Z,45
2017-05-31T10:53:34.746Z,45
2017-05-31T10:54:42.838Z,45
2017-05-31T10:55:50.930Z,45
2017-05-31T10:56:59.013Z,45
2017-05-31T10:58:07.103Z,45
2017-05-31T10:59:15.196Z,45
2017-05-31T11:00:23.284Z,45
2017-05-31T11:01:31.381Z,45
2017-05-31T11:02:39.465Z,45
2017-05-31T11:03:47.679Z,45
2017-05-31T11:04:55.640Z,45
2017-05-31T11:06:03.729Z,45
2017-05-31T11:07:11.819Z,45
2017-05-31T11:08:20.009Z,45
2017-05-31T11:09:28.093Z,45
2017-05-31T11:10:36.086Z,45
2017-05-31T11:11:44.335Z,45
2017-05-31T11:12:52.268Z,45
2017-05-31T11:14:00.358Z,45
2017-05-31T11:15:08.447Z,45
2017-05-31T11:16:16.537Z,45
2017-05-31T11:17:24.626Z,45
2017-05-31T11:18:33.203Z,45
2017-05-31T11:19:41.467Z,45
2017-05-31T11:20:48.891Z,45
2017-05-31T11:21:57.066Z,45
2017-05-31T11:23:05.071Z,45
2017-05-31T11:24:13.160Z,45
2017-05-31T11:25:21.249Z,45
2017-05-31T11:26:29.339Z,45
2017-05-31T11:27:37.428Z,45
2017-05-31T11:28:45.516Z,45
2017-05-31T11:29:53.605Z,45
2017-05-31T11:31:01.694Z,45
2017-05-31T11:32:09.782Z,45
2017-05-31T11:33:17.870Z,45
2017-05-31T11:34:25.980Z,45
2017-05-31T11:35:34.064Z,45
2017-05-31T11:36:42.152Z,45
2017-05-31T11:37:50.245Z,45
2017-05-31T11:38:58.365Z,45
2017-05-31T11:40:06.519Z,45
2017-05-31T11:41:14.511Z,45
2017-05-31T11:42:22.599Z,45
2017-05-31T11:43:30.689Z,45
2017-05-31T11:44:38.778Z,45
2017-05-31T11:45:46.873Z,45
2017-05-31T11:46:55.264Z,45
2017-05-31T11:48:03.159Z,45
2017-05-31T11:49:11.143Z,45
2017-05-31T11:50:19.232Z,44
2017-05-31T11:51:27.320Z,45
2017-05-31T11:52:35.412Z,45
2017-05-31T11:53:43.761Z,45
2017-05-31T11:54:53.253Z,45
2017-05-31T11:55:59.763Z,45
2017-05-31T11:57:07.763Z,45
2017-05-31T11:58:15.854Z,45
2017-05-31T11:59:23.943Z,45
2017-05-31T12:00:32.042Z,45
2017-05-31T12:01:40.123Z,45
2017-05-31T12:02:48.214Z,45
2017-05-31T12:03:56.307Z,45
2017-05-31T12:05:04.396Z,45
2017-05-31T12:06:12.486Z,45
2017-05-31T12:07:20.574Z,45
2017-05-31T12:08:28.678Z,45
2017-05-31T12:09:36.761Z,45
2017-05-31T12:10:44.848Z,45
2017-05-31T12:11:52.938Z,44
2017-05-31T12:13:01.103Z,44
2017-05-31T12:14:09.112Z,45
2017-05-31T12:15:17.204Z,45
2017-05-31T12:16:25.294Z,45
2017-05-31T12:17:33.383Z,45
2017-05-31T12:18:41.472Z,45
2017-05-31T12:19:49.563Z,44
2017-05-31T12:20:57.653Z,44
2017-05-31T12:22:05.740Z,45
2017-05-31T12:23:13.828Z,45
2017-05-31T12:24:21.947Z,45
2017-05-31T12:25:30.008Z,45
2017-05-31T12:26:38.096Z,45
2017-05-31T12:27:46.186Z,45
2017-05-31T12:28:54.283Z,44
2017-05-31T12:30:02.384Z,45
2017-05-31T12:31:10.452Z,45
2017-05-31T12:32:18.541Z,45
2017-05-31T12:33:26.630Z,45
2017-05-31T12:34:34.721Z,44
2017-05-31T12:35:42.811Z,45
2017-05-31T12:36:50.900Z,45
2017-05-31T12:37:58.990Z,44
2017-05-31T12:39:07.080Z,44
2017-05-31T12:40:15.169Z,45
2017-05-31T12:41:23.426Z,44
2017-05-31T12:42:31.345Z,45
2017-05-31T12:43:39.435Z,45
2017-05-31T12:44:47.524Z,44
2017-05-31T12:45:55.612Z,45
2017-05-31T12:47:03.708Z,45
2017-05-31T12:48:11.791Z,45
2017-05-31T12:49:19.881Z,45
2017-05-31T12:50:27.969Z,45
2017-05-31T12:51:36.068Z,44
2017-05-31T12:52:44.146Z,44
2017-05-31T12:53:52.236Z,44
2017-05-31T12:55:00.324Z,44
2017-05-31T12:56:08.415Z,44
2017-05-31T12:57:16.510Z,44
2017-05-31T12:58:24.594Z,43
2017-05-31T12:59:32.684Z,44
2017-05-31T13:00:40.772Z,44
2017-05-31T13:01:48.861Z,44
2017-05-31T13:02:56.951Z,44
2017-05-31T13:04:05.095Z,43
2017-05-31T13:05:13.128Z,43
2017-05-31T13:06:21.219Z,43
2017-05-31T13:07:29.307Z,43
2017-05-31T13:08:37.396Z,42
2017-05-31T13:09:45.485Z,43
2017-05-31T13:10:53.573Z,43
2017-05-31T13:12:01.663Z,43
2017-05-31T13:13:09.752Z,43
2017-05-31T13:14:17.838Z,42
2017-05-31T13:15:25.954Z,43
2017-05-31T13:16:34.017Z,43
2017-05-31T13:17:42.108Z,43
2017-05-31T13:18:50.196Z,43
2017-05-31T13:19:58.285Z,43
2017-05-31T13:21:06.464Z,42
2017-05-31T13:22:14.463Z,42
2017-05-31T13:23:22.553Z,42
2017-05-31T13:24:30.642Z,42
2017-05-31T13:25:38.730Z,42
2017-05-31T13:26:46.828Z,42
2017-05-31T13:27:54.919Z,42
2017-05-31T13:29:03.006Z,43
2017-05-31T13:30:11.094Z,43
2017-05-31T13:31:19.181Z,43
2017-05-31T13:32:27.271Z,43
2017-05-31T13:33:35.359Z,43
2017-05-31T13:34:43.456Z,43
2017-05-31T13:35:51.537Z,43
2017-05-31T13:36:59.629Z,43
2017-05-31T13:38:07.796Z,42
2017-05-31T13:39:15.808Z,43
2017-05-31T13:40:23.894Z,43
2017-05-31T13:41:31.985Z,43
2017-05-31T13:42:40.074Z,44
2017-05-31T13:43:48.164Z,43
2017-05-31T13:44:56.251Z,44
2017-05-31T13:46:04.352Z,43
2017-05-31T13:47:12.432Z,44
2017-05-31T13:48:20.523Z,44
2017-05-31T13:49:28.611Z,44
2017-05-31T13:50:36.701Z,44
2017-05-31T13:51:44.797Z,44
2017-05-31T13:52:52.879Z,44
2017-05-31T13:54:00.987Z,44
2017-05-31T13:55:09.092Z,44
2017-05-31T13:56:17.145Z,44
2017-05-31T13:57:25.237Z,44
2017-05-31T13:58:33.324Z,44
2017-05-31T13:59:41.413Z,44
2017-05-31T14:00:49.503Z,45
2017-05-31T14:01:57.593Z,44
2017-05-31T14:03:05.684Z,44
2017-05-31T14:04:13.782Z,44
2017-05-31T14:05:21.867Z,44
2017-05-31T14:06:29.960Z,44
2017-05-31T14:07:38.050Z,45
2017-05-31T14:08:46.137Z,44
2017-05-31T14:09:54.229Z,45
2017-05-31T14:11:02.315Z,45
2017-05-31T14:12:10.417Z,44
2017-05-31T14:13:18.500Z,45
2017-05-31T14:14:26.599Z,45
2017-05-31T14:15:34.680Z,44
2017-05-31T14:16:42.769Z,45
2017-05-31T14:17:50.860Z,45
2017-05-31T14:18:58.949Z,45
2017-05-31T14:20:07.044Z,45
2017-05-31T14:21:15.125Z,45
2017-05-31T14:22:23.217Z,45
2017-05-31T14:23:31.309Z,45
2017-05-31T14:24:39.396Z,45
2017-05-31T14:25:47.484Z,45
2017-05-31T14:26:55.574Z,45
2017-05-31T14:28:03.661Z,45
2017-05-31T14:29:11.751Z,45
2017-05-31T14:30:19.846Z,45
2017-05-31T14:31:27.928Z,45
2017-05-31T14:32:36.017Z,45
2017-05-31T14:33:44.127Z,45
2017-05-31T14:34:52.193Z,45
2017-05-31T14:36:00.283Z,45
2017-05-31T14:38:16.468Z,45
2017-05-31T14:39:24.552Z,45
2017-05-31T14:40:32.642Z,45
2017-05-31T14:41:40.729Z,46
2017-05-31T14:43:56.906Z,46
2017-05-31T14:45:04.995Z,46
2017-05-31T14:46:13.088Z,46
2017-05-31T14:47:21.172Z,46
2017-05-31T14:48:29.260Z,46
2017-05-31T14:49:37.350Z,46
2017-05-31T14:50:45.439Z,46
2017-05-31T14:51:54.213Z,45
2017-05-31T14:53:01.621Z,46
2017-05-31T14:54:09.748Z,45
2017-05-31T14:55:17.797Z,45
2017-05-31T14:56:25.949Z,46
2017-05-31T14:57:33.998Z,46
2017-05-31T14:58:42.062Z,46
2017-05-31T14:59:50.151Z,46
2017-05-31T15:00:58.240Z,47
2017-05-31T15:02:06.388Z,47
2017-05-31T15:03:14.418Z,48
2017-05-31T15:04:22.656Z,48
2017-05-31T15:05:30.744Z,48
2017-05-31T15:06:38.837Z,48
2017-05-31T15:07:46.927Z,48
2017-05-31T15:08:55.022Z,48
2017-05-31T15:10:03.099Z,48
2017-05-31T15:11:11.202Z,48
2017-05-31T15:12:19.293Z,49
2017-05-31T15:13:27.362Z,49
2017-05-31T15:14:35.451Z,49
2017-05-31T15:15:43.546Z,50
2017-05-31T15:16:51.651Z,50
2017-05-31T15:17:59.724Z,50
2017-05-31T15:19:07.875Z,50
2017-05-31T15:20:15.902Z,50
2017-05-31T15:21:23.994Z,50
2017-05-31T15:22:32.078Z,50
2017-05-31T15:23:40.197Z,50
2017-05-31T15:24:48.254Z,51
2017-05-31T15:25:56.353Z,50
2017-05-31T15:27:04.426Z,51
2017-05-31T15:28:12.528Z,50
2017-05-31T15:29:20.620Z,50
2017-05-31T15:30:28.701Z,50
2017-05-31T15:31:36.787Z,50
2017-05-31T15:32:45.004Z,50
2017-05-31T15:33:52.966Z,50
2017-05-31T15:35:01.047Z,50
2017-05-31T15:36:09.161Z,50
2017-05-31T15:37:17.252Z,49
2017-05-31T15:38:25.316Z,49
2017-05-31T15:39:33.417Z,49
2017-05-31T15:40:41.505Z,49
2017-05-31T15:41:49.599Z,50
2017-05-31T15:42:57.678Z,50
2017-05-31T15:44:05.774Z,50
2017-05-31T15:45:13.855Z,50
2017-05-31T15:46:21.947Z,50
2017-05-31T15:47:30.046Z,49
2017-05-31T15:48:38.126Z,49
2017-05-31T15:49:46.220Z,49
2017-05-31T15:50:54.294Z,48
2017-05-31T15:52:02.393Z,48
2017-05-31T15:53:10.466Z,48
2017-05-31T15:54:18.577Z,48
2017-05-31T15:55:26.646Z,48
2017-05-31T15:56:34.753Z,48
2017-05-31T15:57:42.833Z,48
2017-05-31T15:58:50.932Z,48
2017-05-31T15:59:59.015Z,48
2017-05-31T16:01:07.100Z,48
2017-05-31T16:02:15.197Z,48
2017-05-31T16:03:23.271Z,48
2017-05-31T16:04:31.399Z,49
2017-05-31T16:05:39.458Z,48
2017-05-31T16:06:47.538Z,48
2017-05-31T16:07:55.632Z,48
2017-05-31T16:09:03.723Z,48
2017-05-31T16:10:11.801Z,48
2017-05-31T16:11:19.893Z,48
2017-05-31T16:12:27.979Z,48